Pink Coral — 9HPY9 — position and weather

sailwx.info

Track history (hours):
 
Tides and Currents Weather Stations Pressure Air Temp Water Temp Dewpoint Dewpoint Depression Visibility Wind Speed Wind Dir Waves Ship Positions

Pink Coral

Last reported at 2017-Nov-17 19:39 UTC. Time now 2017-Nov-18 17:32 UTC.
Position N 44°24' E 037°19'.

Length 183 m; draft 11.2 m.

Type: Ship (hazmat cat A). MMSI: 249344000.

Date/timePositionNaut miles runAvg speedWind from/ knotsBaromVisibWave heightAir tempDewpointWater temp
2017-Nov-17 19:39N 44°24' E 037°19'212.5
2017-Nov-17 19:30N 44°25' E 037°21'612.3
2017-Nov-17 19:00N 44°28' E 037°29'712.9
2017-Nov-17 18:30N 44°31' E 037°37'613.0
2017-Nov-17 18:00N 44°35' E 037°44'612.4
2017-Nov-17 17:30N 44°39' E 037°50'3 5.2
2017-Nov-17 17:00N 44°42' E 037°50'1 1.8
2017-Nov-17 16:29N 44°43' E 037°50'0 0.0
2017-Nov-17 15:58N 44°43' E 037°50'0 0.0
2017-Nov-17 15:28N 44°43' E 037°50'0 0.0
2017-Nov-17 13:13N 44°43' E 037°50'0 0.0
2017-Nov-17 12:59N 44°43' E 037°50'0 0.0
2017-Nov-17 12:29N 44°43' E 037°50'0 0.0
2017-Nov-17 11:58N 44°43' E 037°50'0 0.0
2017-Nov-17 11:28N 44°43' E 037°50'0 0.0
2017-Nov-17 10:59N 44°43' E 037°50'0 0.0
2017-Nov-17 10:28N 44°43' E 037°50'0 0.0
2017-Nov-17 09:58N 44°43' E 037°50'0 0.0
2017-Nov-17 09:28N 44°43' E 037°50'0 0.0
2017-Nov-17 08:58N 44°43' E 037°50'0 0.0
2017-Nov-17 08:28N 44°43' E 037°50'0 0.0
2017-Nov-17 07:58N 44°43' E 037°50'0 0.0
2017-Nov-17 07:28N 44°43' E 037°50'0 0.0
2017-Nov-17 06:58N 44°43' E 037°50'0 0.0
2017-Nov-17 06:28N 44°43' E 037°50'0 0.0
2017-Nov-16 21:55N 44°43' E 037°50'0 0.0
2017-Nov-16 21:28N 44°43' E 037°50'0 0.0
2017-Nov-16 20:58N 44°43' E 037°50'0 0.0
2017-Nov-16 20:28N 44°43' E 037°50'0 0.0
2017-Nov-16 19:46N 44°43' E 037°50'0 0.0
2017-Nov-16 19:28N 44°43' E 037°50'0 0.0
2017-Nov-16 18:58N 44°43' E 037°50'0 0.0
2017-Nov-16 18:28N 44°43' E 037°50'0 0.0
2017-Nov-16 17:58N 44°43' E 037°50'0 0.0
2017-Nov-16 17:28N 44°43' E 037°50'0 0.0
2017-Nov-16 16:58N 44°43' E 037°50'0 0.0
2017-Nov-16 16:28N 44°43' E 037°50'0 0.0
2017-Nov-16 15:58N 44°43' E 037°50'0 0.0
2017-Nov-16 15:28N 44°43' E 037°50'0 0.0
2017-Nov-16 14:58N 44°43' E 037°50'0 0.0
2017-Nov-16 14:28N 44°43' E 037°50'0 0.0
2017-Nov-16 13:58N 44°43' E 037°50'0 0.0
2017-Nov-16 13:28N 44°43' E 037°50'0 0.0
2017-Nov-16 03:43N 44°43' E 037°50'0 0.0
2017-Nov-16 03:28N 44°43' E 037°50'0 0.0
2017-Nov-16 02:58N 44°43' E 037°50'0 0.0
2017-Nov-16 02:28N 44°43' E 037°50'0 0.0
2017-Nov-16 01:58N 44°43' E 037°50'0 0.0
2017-Nov-16 01:28N 44°43' E 037°50'0 0.0
2017-Nov-16 00:58N 44°43' E 037°50'0 0.0
2017-Nov-16 00:28N 44°43' E 037°50'0 0.0
2017-Nov-15 23:58N 44°43' E 037°50'0 0.0
2017-Nov-15 23:28N 44°43' E 037°50'0 0.0
2017-Nov-15 22:58N 44°43' E 037°50'0 0.0
2017-Nov-15 22:28N 44°43' E 037°50'0 0.0
2017-Nov-15 21:58N 44°43' E 037°50'0 0.0
2017-Nov-15 21:28N 44°43' E 037°50'0 0.0
2017-Nov-15 20:58N 44°43' E 037°50'0 0.0
2017-Nov-15 20:28N 44°43' E 037°50'0 0.0
2017-Nov-15 19:58N 44°43' E 037°50'0 0.0
2017-Nov-15 19:28N 44°43' E 037°50'0 0.0
2017-Nov-15 19:01N 44°43' E 037°50'0 0.0
2017-Nov-15 18:30N 44°43' E 037°50'0 0.0
2017-Nov-15 18:00N 44°43' E 037°50'1 1.0
2017-Nov-15 17:30N 44°42' E 037°50'4 7.3
2017-Nov-15 17:01N 44°39' E 037°51'4 8.6
2017-Nov-15 16:30N 44°34' E 037°52'5 9.1
2017-Nov-15 16:00N 44°31' E 037°48'611.7
2017-Nov-15 15:30N 44°27' E 037°42'713.4
2017-Nov-15 15:00N 44°21' E 037°38'4 4.1
2017-Nov-15 13:56N 44°17' E 037°38'1 1.2
2017-Nov-15 13:30N 44°17' E 037°39'1 1.2
2017-Nov-15 13:00N 44°18' E 037°39'1 1.0
2017-Nov-15 12:30N 44°18' E 037°39'0 1.0
2017-Nov-15 12:00N 44°18' E 037°40'1 2.5
2017-Nov-15 11:30N 44°19' E 037°41'3 6.1
2017-Nov-15 10:59N 44°21' E 037°44'1 1.6
2017-Nov-15 10:31N 44°22' E 037°44'1 1.2
2017-Nov-15 10:00N 44°22' E 037°44'1 1.2
2017-Nov-15 09:31N 44°21' E 037°43'1 1.1
2017-Nov-15 09:01N 44°21' E 037°42'0 0.5
2017-Nov-15 08:30N 44°21' E 037°42'1 2.0
2017-Nov-15 08:01N 44°22' E 037°41'1 1.1
2017-Nov-15 07:30N 44°22' E 037°40'1 1.4
2017-Nov-15 07:00N 44°21' E 037°39'1 1.1
2017-Nov-15 06:30N 44°21' E 037°39'0 0.8
2017-Nov-15 06:01N 44°21' E 037°38'0 0.5
2017-Nov-15 05:30N 44°21' E 037°38'0 0.4
2017-Nov-15 05:00N 44°21' E 037°37'0 0.5
2017-Nov-15 04:28N 44°21' E 037°37'1 1.8
2017-Nov-15 03:58N 44°22' E 037°37'4 8.0
2017-Nov-15 03:30N 44°26' E 037°37'0 0.7
2017-Nov-15 03:00N 44°26' E 037°37'0 0.5
2017-Nov-15 02:31N 44°25' E 037°37'0 0.5
2017-Nov-15 02:00N 44°25' E 037°37'0 0.6
2017-Nov-15 01:30N 44°25' E 037°37'0 0.6
2017-Nov-15 00:59N 44°25' E 037°36'0 0.6
2017-Nov-15 00:31N 44°24' E 037°36'0 0.6
2017-Nov-15 00:00N 44°24' E 037°36'0 0.6
2017-Nov-14 23:30N 44°24' E 037°36'0 0.7
2017-Nov-14 23:00N 44°23' E 037°36'0 0.7
2017-Nov-14 22:24N 44°23' E 037°37'0 0.8
2017-Nov-14 22:00N 44°23' E 037°37'0 0.9
2017-Nov-14 21:27N 44°22' E 037°37'0 0.8
2017-Nov-14 21:00N 44°22' E 037°37'0 0.5
2017-Nov-14 20:30N 44°22' E 037°37'0 0.9
2017-Nov-14 19:59N 44°22' E 037°38'2 5.1
2017-Nov-14 19:30N 44°24' E 037°38'0 0.2
2017-Nov-14 19:01N 44°24' E 037°38'1 1.1
2017-Nov-14 18:30N 44°24' E 037°38'1 0.9
2017-Nov-14 17:57N 44°23' E 037°38'0 0.9
2017-Nov-14 17:31N 44°23' E 037°38'1 1.4
2017-Nov-14 17:00N 44°22' E 037°37'2 3.3
2017-Nov-14 16:30N 44°24' E 037°36'5 9.1
2017-Nov-14 16:00N 44°28' E 037°36'0 0.8
2017-Nov-14 15:30N 44°28' E 037°36'1 1.3
2017-Nov-14 15:00N 44°27' E 037°36'1 1.4
2017-Nov-14 14:30N 44°26' E 037°36'1 1.4
2017-Nov-14 14:00N 44°26' E 037°37'1 1.3
2017-Nov-14 13:30N 44°25' E 037°37'1 1.2
2017-Nov-14 13:00N 44°25' E 037°38'1 1.1
2017-Nov-14 12:31N 44°24' E 037°38'0 0.4
2017-Nov-14 12:00N 44°24' E 037°38'2 4.6
2017-Nov-14 11:30N 44°24' E 037°34'4 7.4
2017-Nov-14 11:00N 44°24' E 037°29'510.2
2017-Nov-14 10:30N 44°22' E 037°23'4 8.2
2017-Nov-14 10:00N 44°20' E 037°17'612.5
2017-Nov-14 09:30N 44°17' E 037°10'  
2017-Nov-09 09:23N 37°40' E 024°32'  
Track history (hours):
 
Tides and Currents Weather Stations Pressure Air Temp Water Temp Dewpoint Dewpoint Depression Visibility Wind Speed Wind Dir Waves Ship Positions

Pink Coral

Last reported at 2017-Nov-17 19:39 UTC. Time now 2017-Nov-18 17:32 UTC.
Position N 44°24' E 037°19'.

Length 183 m; draft 11.2 m.

Type: Ship (hazmat cat A). MMSI: 249344000.

Date/timePositionNaut miles runAvg speedWind from/ knotsBaromVisibWave heightAir tempDewpointWater temp
2017-Nov-17 19:39N 44°24' E 037°19'212.5
2017-Nov-17 19:30N 44°25' E 037°21'612.3
2017-Nov-17 19:00N 44°28' E 037°29'712.9
2017-Nov-17 18:30N 44°31' E 037°37'613.0
2017-Nov-17 18:00N 44°35' E 037°44'612.4
2017-Nov-17 17:30N 44°39' E 037°50'3 5.2
2017-Nov-17 17:00N 44°42' E 037°50'1 1.8
2017-Nov-17 16:29N 44°43' E 037°50'0 0.0
2017-Nov-17 15:58N 44°43' E 037°50'0 0.0
2017-Nov-17 15:28N 44°43' E 037°50'0 0.0
2017-Nov-17 13:13N 44°43' E 037°50'0 0.0
2017-Nov-17 12:59N 44°43' E 037°50'0 0.0
2017-Nov-17 12:29N 44°43' E 037°50'0 0.0
2017-Nov-17 11:58N 44°43' E 037°50'0 0.0
2017-Nov-17 11:28N 44°43' E 037°50'0 0.0
2017-Nov-17 10:59N 44°43' E 037°50'0 0.0
2017-Nov-17 10:28N 44°43' E 037°50'0 0.0
2017-Nov-17 09:58N 44°43' E 037°50'0 0.0
2017-Nov-17 09:28N 44°43' E 037°50'0 0.0
2017-Nov-17 08:58N 44°43' E 037°50'0 0.0
2017-Nov-17 08:28N 44°43' E 037°50'0 0.0
2017-Nov-17 07:58N 44°43' E 037°50'0 0.0
2017-Nov-17 07:28N 44°43' E 037°50'0 0.0
2017-Nov-17 06:58N 44°43' E 037°50'0 0.0
2017-Nov-17 06:28N 44°43' E 037°50'0 0.0
2017-Nov-16 21:55N 44°43' E 037°50'0 0.0
2017-Nov-16 21:28N 44°43' E 037°50'0 0.0
2017-Nov-16 20:58N 44°43' E 037°50'0 0.0
2017-Nov-16 20:28N 44°43' E 037°50'0 0.0
2017-Nov-16 19:46N 44°43' E 037°50'0 0.0
2017-Nov-16 19:28N 44°43' E 037°50'0 0.0
2017-Nov-16 18:58N 44°43' E 037°50'0 0.0
2017-Nov-16 18:28N 44°43' E 037°50'0 0.0
2017-Nov-16 17:58N 44°43' E 037°50'0 0.0
2017-Nov-16 17:28N 44°43' E 037°50'0 0.0
2017-Nov-16 16:58N 44°43' E 037°50'0 0.0
2017-Nov-16 16:28N 44°43' E 037°50'0 0.0
2017-Nov-16 15:58N 44°43' E 037°50'0 0.0
2017-Nov-16 15:28N 44°43' E 037°50'0 0.0
2017-Nov-16 14:58N 44°43' E 037°50'0 0.0
2017-Nov-16 14:28N 44°43' E 037°50'0 0.0
2017-Nov-16 13:58N 44°43' E 037°50'0 0.0
2017-Nov-16 13:28N 44°43' E 037°50'0 0.0
2017-Nov-16 03:43N 44°43' E 037°50'0 0.0
2017-Nov-16 03:28N 44°43' E 037°50'0 0.0
2017-Nov-16 02:58N 44°43' E 037°50'0 0.0
2017-Nov-16 02:28N 44°43' E 037°50'0 0.0
2017-Nov-16 01:58N 44°43' E 037°50'0 0.0
2017-Nov-16 01:28N 44°43' E 037°50'0 0.0
2017-Nov-16 00:58N 44°43' E 037°50'0 0.0
2017-Nov-16 00:28N 44°43' E 037°50'0 0.0
2017-Nov-15 23:58N 44°43' E 037°50'0 0.0
2017-Nov-15 23:28N 44°43' E 037°50'0 0.0
2017-Nov-15 22:58N 44°43' E 037°50'0 0.0
2017-Nov-15 22:28N 44°43' E 037°50'0 0.0
2017-Nov-15 21:58N 44°43' E 037°50'0 0.0
2017-Nov-15 21:28N 44°43' E 037°50'0 0.0
2017-Nov-15 20:58N 44°43' E 037°50'0 0.0
2017-Nov-15 20:28N 44°43' E 037°50'0 0.0
2017-Nov-15 19:58N 44°43' E 037°50'0 0.0
2017-Nov-15 19:28N 44°43' E 037°50'0 0.0
2017-Nov-15 19:01N 44°43' E 037°50'0 0.0
2017-Nov-15 18:30N 44°43' E 037°50'0 0.0
2017-Nov-15 18:00N 44°43' E 037°50'1 1.0
2017-Nov-15 17:30N 44°42' E 037°50'4 7.3
2017-Nov-15 17:01N 44°39' E 037°51'4 8.6
2017-Nov-15 16:30N 44°34' E 037°52'5 9.1
2017-Nov-15 16:00N 44°31' E 037°48'611.7
2017-Nov-15 15:30N 44°27' E 037°42'713.4
2017-Nov-15 15:00N 44°21' E 037°38'4 4.1
2017-Nov-15 13:56N 44°17' E 037°38'1 1.2
2017-Nov-15 13:30N 44°17' E 037°39'1 1.2
2017-Nov-15 13:00N 44°18' E 037°39'1 1.0
2017-Nov-15 12:30N 44°18' E 037°39'0 1.0
2017-Nov-15 12:00N 44°18' E 037°40'1 2.5
2017-Nov-15 11:30N 44°19' E 037°41'3 6.1
2017-Nov-15 10:59N 44°21' E 037°44'1 1.6
2017-Nov-15 10:31N 44°22' E 037°44'1 1.2
2017-Nov-15 10:00N 44°22' E 037°44'1 1.2
2017-Nov-15 09:31N 44°21' E 037°43'1 1.1
2017-Nov-15 09:01N 44°21' E 037°42'0 0.5
2017-Nov-15 08:30N 44°21' E 037°42'1 2.0
2017-Nov-15 08:01N 44°22' E 037°41'1 1.1
2017-Nov-15 07:30N 44°22' E 037°40'1 1.4
2017-Nov-15 07:00N 44°21' E 037°39'1 1.1
2017-Nov-15 06:30N 44°21' E 037°39'0 0.8
2017-Nov-15 06:01N 44°21' E 037°38'0 0.5
2017-Nov-15 05:30N 44°21' E 037°38'0 0.4
2017-Nov-15 05:00N 44°21' E 037°37'0 0.5
2017-Nov-15 04:28N 44°21' E 037°37'1 1.8
2017-Nov-15 03:58N 44°22' E 037°37'4 8.0
2017-Nov-15 03:30N 44°26' E 037°37'0 0.7
2017-Nov-15 03:00N 44°26' E 037°37'0 0.5
2017-Nov-15 02:31N 44°25' E 037°37'0 0.5
2017-Nov-15 02:00N 44°25' E 037°37'0 0.6
2017-Nov-15 01:30N 44°25' E 037°37'0 0.6
2017-Nov-15 00:59N 44°25' E 037°36'0 0.6
2017-Nov-15 00:31N 44°24' E 037°36'0 0.6
2017-Nov-15 00:00N 44°24' E 037°36'0 0.6
2017-Nov-14 23:30N 44°24' E 037°36'0 0.7
2017-Nov-14 23:00N 44°23' E 037°36'0 0.7
2017-Nov-14 22:24N 44°23' E 037°37'0 0.8
2017-Nov-14 22:00N 44°23' E 037°37'0 0.9
2017-Nov-14 21:27N 44°22' E 037°37'0 0.8
2017-Nov-14 21:00N 44°22' E 037°37'0 0.5
2017-Nov-14 20:30N 44°22' E 037°37'0 0.9
2017-Nov-14 19:59N 44°22' E 037°38'2 5.1
2017-Nov-14 19:30N 44°24' E 037°38'0 0.2
2017-Nov-14 19:01N 44°24' E 037°38'1 1.1
2017-Nov-14 18:30N 44°24' E 037°38'1 0.9
2017-Nov-14 17:57N 44°23' E 037°38'0 0.9
2017-Nov-14 17:31N 44°23' E 037°38'1 1.4
2017-Nov-14 17:00N 44°22' E 037°37'2 3.3
2017-Nov-14 16:30N 44°24' E 037°36'5 9.1
2017-Nov-14 16:00N 44°28' E 037°36'0 0.8
2017-Nov-14 15:30N 44°28' E 037°36'1 1.3
2017-Nov-14 15:00N 44°27' E 037°36'1 1.4
2017-Nov-14 14:30N 44°26' E 037°36'1 1.4
2017-Nov-14 14:00N 44°26' E 037°37'1 1.3
2017-Nov-14 13:30N 44°25' E 037°37'1 1.2
2017-Nov-14 13:00N 44°25' E 037°38'1 1.1
2017-Nov-14 12:31N 44°24' E 037°38'0 0.4
2017-Nov-14 12:00N 44°24' E 037°38'2 4.6
2017-Nov-14 11:30N 44°24' E 037°34'4 7.4
2017-Nov-14 11:00N 44°24' E 037°29'510.2
2017-Nov-14 10:30N 44°22' E 037°23'4 8.2
2017-Nov-14 10:00N 44°20' E 037°17'612.5
2017-Nov-14 09:30N 44°17' E 037°10'  
2017-Nov-09 09:23N 37°40' E 024°32'  

Dump ship's entire track history